Time;durP1;ratioP1;P1;durP2;ratioP2;P2;SDS_P1;SDS_P2;PMS_P1;PMS_P2;Temp;Humidity;BMP_temperature;BMP_pressure;BME280_temperature;BME280_humidity;BME280_pressure;Samples;Min_cycle;Max_cycle;Signal;HPM_P1;HPM_P2
2024/01/28 00:01:01;;;;;;;11.82;5.03;;;3.90;75.70;;;;;;5130458;27;20102;-71
2024/01/28 00:03:28;;;;;;;13.75;5.10;;;3.90;75.70;;;;;;5137850;27;20078;-71
2024/01/28 00:05:55;;;;;;;13.52;5.50;;;3.90;75.70;;;;;;5151213;27;20050;-73
2024/01/28 00:08:25;;;;;;;14.63;5.38;;;3.90;75.60;;;;;;5151240;27;20059;-72
2024/01/28 00:10:54;;;;;;;12.00;5.33;;;3.80;75.50;;;;;;5127054;27;20047;-71
2024/01/28 00:13:24;;;;;;;12.52;5.38;;;3.70;75.50;;;;;;5130344;27;20051;-71
2024/01/28 00:15:52;;;;;;;13.93;5.18;;;3.70;75.50;;;;;;5147835;27;20051;-70
2024/01/28 00:18:20;;;;;;;15.65;5.90;;;3.70;75.60;;;;;;5141506;27;20155;-70
2024/01/28 00:20:47;;;;;;;14.25;5.90;;;3.70;75.70;;;;;;5130039;27;20351;-70
2024/01/28 00:23:14;;;;;;;15.27;6.23;;;3.60;75.60;;;;;;5130796;27;20222;-70
2024/01/28 00:25:41;;;;;;;12.60;6.40;;;3.60;75.70;;;;;;5130821;27;20070;-70
2024/01/28 00:28:09;;;;;;;15.40;6.35;;;3.60;75.60;;;;;;5128798;27;20148;-73
2024/01/28 00:30:36;;;;;;;15.02;6.35;;;3.60;75.70;;;;;;5112147;27;20104;-70
2024/01/28 00:33:03;;;;;;;17.77;6.80;;;3.50;75.70;;;;;;5130077;27;20047;-72
2024/01/28 00:35:30;;;;;;;15.70;6.40;;;3.50;75.80;;;;;;5145395;27;20147;-69
2024/01/28 00:37:58;;;;;;;15.15;6.10;;;3.50;75.80;;;;;;5149523;27;20047;-72
2024/01/28 00:40:25;;;;;;;17.15;6.95;;;3.50;75.90;;;;;;5130204;27;20119;-70
2024/01/28 00:42:52;;;;;;;17.30;6.47;;;3.50;75.90;;;;;;5129707;27;20108;-72
2024/01/28 00:45:20;;;;;;;16.02;6.68;;;3.50;76.00;;;;;;5118832;27;20528;-71
2024/01/28 00:47:47;;;;;;;17.60;6.97;;;3.50;76.20;;;;;;5130179;27;20543;-69
2024/01/28 00:50:14;;;;;;;13.88;6.05;;;3.40;76.20;;;;;;5143216;27;20133;-72
2024/01/28 00:52:43;;;;;;;15.15;6.82;;;3.40;76.20;;;;;;5142452;27;20065;-70
2024/01/28 00:55:11;;;;;;;12.23;6.22;;;3.40;76.20;;;;;;5112432;27;20414;-70
2024/01/28 00:57:38;;;;;;;18.20;6.72;;;3.40;76.40;;;;;;5130119;27;20131;-70
2024/01/28 01:00:06;;;;;;;12.57;6.20;;;3.40;76.50;;;;;;5127393;27;20559;-71
2024/01/28 01:02:35;;;;;;;13.57;5.97;;;3.50;76.50;;;;;;5150182;27;20057;-69
2024/01/28 01:05:02;;;;;;;14.98;6.32;;;3.40;76.50;;;;;;5149348;27;20077;-71
2024/01/28 01:07:29;;;;;;;15.70;6.20;;;3.40;76.50;;;;;;5110709;27;20039;-71
2024/01/28 01:09:57;;;;;;;13.52;5.68;;;3.40;76.50;;;;;;5111268;27;20587;-72
2024/01/28 01:12:24;;;;;;;13.50;6.27;;;3.40;76.70;;;;;;5129316;27;20609;-70
2024/01/28 01:14:51;;;;;;;16.58;6.68;;;3.40;76.60;;;;;;5129390;27;20552;-70
2024/01/28 01:17:18;;;;;;;16.52;6.88;;;3.40;76.60;;;;;;5127823;27;20199;-69
2024/01/28 01:19:46;;;;;;;12.45;6.55;;;3.40;76.70;;;;;;5150241;27;20528;-70
2024/01/28 01:22:14;;;;;;;15.65;6.20;;;3.40;76.70;;;;;;5129806;27;20054;-70
2024/01/28 01:24:41;;;;;;;15.40;6.43;;;3.40;76.70;;;;;;5129530;27;20055;-70
2024/01/28 01:27:08;;;;;;;15.50;6.95;;;3.40;76.70;;;;;;5131173;27;20171;-72
2024/01/28 01:29:34;;;;;;;17.48;7.15;;;3.40;76.80;;;;;;5149566;27;20049;-71
2024/01/28 01:32:01;;;;;;;16.02;6.57;;;3.40;76.90;;;;;;5131809;27;20142;-70
2024/01/28 01:34:28;;;;;;;13.40;6.28;;;3.30;76.80;;;;;;5146356;27;20627;-70
2024/01/28 01:36:57;;;;;;;13.53;5.73;;;3.30;76.80;;;;;;5129282;27;20134;-71
2024/01/28 01:39:24;;;;;;;15.10;6.00;;;3.40;76.90;;;;;;5129350;27;20719;-70
2024/01/28 01:41:51;;;;;;;12.57;5.60;;;3.30;76.80;;;;;;5111833;27;20125;-70
2024/01/28 01:44:18;;;;;;;12.68;5.97;;;3.30;76.80;;;;;;5156086;27;20529;-70
2024/01/28 01:46:46;;;;;;;16.33;6.70;;;3.30;76.80;;;;;;5135320;27;20047;-70
2024/01/28 01:49:13;;;;;;;17.53;6.30;;;3.30;76.80;;;;;;5129269;27;20584;-70
2024/01/28 01:51:41;;;;;;;13.75;5.82;;;3.30;76.90;;;;;;5126935;27;20672;-70
2024/01/28 01:54:09;;;;;;;13.98;6.03;;;3.30;76.80;;;;;;5129542;27;20120;-73
2024/01/28 01:56:36;;;;;;;14.50;5.63;;;3.30;76.90;;;;;;5129325;27;20151;-72
2024/01/28 01:59:04;;;;;;;13.05;5.78;;;3.30;76.80;;;;;;5128900;27;20167;-71
2024/01/28 02:01:32;;;;;;;18.03;6.30;;;3.30;76.80;;;;;;5127160;27;20075;-69
2024/01/28 02:03:59;;;;;;;17.95;6.07;;;3.30;76.90;;;;;;5128670;27;20135;-69
2024/01/28 02:06:27;;;;;;;14.27;6.10;;;3.30;76.90;;;;;;5127996;27;20043;-70
2024/01/28 02:08:54;;;;;;;11.88;5.72;;;3.30;76.90;;;;;;5128813;27;20455;-69
2024/01/28 02:11:23;;;;;;;15.80;5.95;;;3.30;76.90;;;;;;5148773;27;20142;-71
2024/01/28 02:13:50;;;;;;;17.23;6.23;;;3.30;76.90;;;;;;5128411;27;20050;-70
2024/01/28 02:16:17;;;;;;;14.82;5.93;;;3.30;77.00;;;;;;5128159;27;20115;-71
2024/01/28 02:18:44;;;;;;;15.02;5.90;;;3.30;77.00;;;;;;5127608;27;20140;-71
2024/01/28 02:21:12;;;;;;;18.00;6.70;;;3.30;77.10;;;;;;5128208;27;20533;-70
2024/01/28 02:23:40;;;;;;;15.57;6.03;;;3.30;77.10;;;;;;5128621;27;20057;-70
2024/01/28 02:26:07;;;;;;;13.40;6.53;;;3.20;77.10;;;;;;5133024;27;20651;-71
2024/01/28 02:28:34;;;;;;;17.50;5.78;;;3.20;77.20;;;;;;5114135;27;20134;-70
2024/01/28 02:31:00;;;;;;;14.43;6.18;;;3.20;77.20;;;;;;5111528;27;20414;-72
2024/01/28 02:33:27;;;;;;;14.32;6.10;;;3.20;77.20;;;;;;5129280;27;20051;-72
2024/01/28 02:35:55;;;;;;;15.48;6.45;;;3.20;77.30;;;;;;5127982;27;20075;-70
2024/01/28 02:38:22;;;;;;;16.87;6.37;;;3.20;77.20;;;;;;5143459;27;20057;-70
2024/01/28 02:40:52;;;;;;;13.65;6.10;;;3.20;77.30;;;;;;5148524;27;20650;-71
2024/01/28 02:43:19;;;;;;;12.30;6.20;;;3.20;77.30;;;;;;5146275;27;20066;-69
2024/01/28 02:45:46;;;;;;;13.05;5.78;;;3.20;77.30;;;;;;5148765;27;20142;-70
2024/01/28 02:48:12;;;;;;;13.45;5.97;;;3.20;77.40;;;;;;5148624;27;20078;-71
2024/01/28 02:50:39;;;;;;;14.53;5.70;;;3.20;77.30;;;;;;5167563;27;20204;-71
2024/01/28 02:53:06;;;;;;;13.68;5.90;;;3.20;77.30;;;;;;5139193;27;20150;-70
2024/01/28 02:55:34;;;;;;;14.80;5.50;;;3.20;77.30;;;;;;5127891;27;20222;-72
2024/01/28 02:58:03;;;;;;;11.50;5.57;;;3.20;77.20;;;;;;5110387;27;20433;-71
2024/01/28 03:00:30;;;;;;;14.88;6.18;;;3.20;77.30;;;;;;5125298;27;20055;-71
2024/01/28 03:02:57;;;;;;;14.37;5.43;;;3.20;77.30;;;;;;5145184;27;20151;-70
2024/01/28 03:05:24;;;;;;;14.98;6.18;;;3.10;77.30;;;;;;5127945;27;20235;-70
2024/01/28 03:07:51;;;;;;;14.45;5.55;;;3.10;77.30;;;;;;5127195;27;20102;-70
2024/01/28 03:10:18;;;;;;;13.98;5.53;;;3.10;77.30;;;;;;5127560;27;20142;-72
2024/01/28 03:12:44;;;;;;;14.82;5.63;;;3.10;77.30;;;;;;5128217;27;20166;-72
2024/01/28 03:15:13;;;;;;;13.70;5.20;;;3.10;77.30;;;;;;5128153;27;20047;-70
2024/01/28 03:17:40;;;;;;;13.07;5.32;;;3.10;77.30;;;;;;5131145;27;20058;-70
2024/01/28 03:20:08;;;;;;;12.35;5.40;;;3.10;77.40;;;;;;5127847;27;20443;-72
2024/01/28 03:22:35;;;;;;;12.88;5.50;;;3.10;77.30;;;;;;5128446;27;20063;-69
2024/01/28 03:25:02;;;;;;;15.90;5.80;;;3.10;77.30;;;;;;5146392;27;20554;-70
2024/01/28 03:27:28;;;;;;;14.67;5.13;;;3.10;77.30;;;;;;5128242;27;20075;-70
2024/01/28 03:29:55;;;;;;;11.30;5.38;;;3.10;77.30;;;;;;5128157;27;20140;-70
2024/01/28 03:32:24;;;;;;;11.55;5.45;;;3.10;77.30;;;;;;5131281;27;20170;-72
2024/01/28 03:34:51;;;;;;;11.45;4.97;;;3.10;77.30;;;;;;5135577;27;20133;-70
2024/01/28 03:37:17;;;;;;;11.25;5.10;;;3.10;77.30;;;;;;5151542;27;20078;-72
2024/01/28 03:39:45;;;;;;;14.73;4.87;;;3.10;77.30;;;;;;5145106;27;20126;-72
2024/01/28 03:42:12;;;;;;;13.32;5.35;;;3.10;77.30;;;;;;5130792;27;20495;-69
2024/01/28 03:44:38;;;;;;;11.13;5.20;;;3.10;77.20;;;;;;5129926;27;20111;-72
2024/01/28 03:47:05;;;;;;;12.00;4.78;;;3.10;77.30;;;;;;5130807;27;20077;-71
2024/01/28 03:49:34;;;;;;;10.43;4.88;;;3.10;77.30;;;;;;5130276;27;20370;-72
2024/01/28 03:52:01;;;;;;;12.40;4.87;;;3.10;77.30;;;;;;5136108;27;20533;-70
2024/01/28 03:54:28;;;;;;;13.50;5.07;;;3.10;77.30;;;;;;5130912;27;20096;-69
2024/01/28 03:56:55;;;;;;;14.30;5.45;;;3.10;77.30;;;;;;5131061;27;20051;-69
2024/01/28 03:59:22;;;;;;;11.30;5.15;;;3.10;77.40;;;;;;5130936;27;20079;-69
2024/01/28 04:01:49;;;;;;;15.45;5.65;;;3.00;77.40;;;;;;5130631;27;20149;-72
2024/01/28 04:04:16;;;;;;;15.53;5.23;;;3.00;77.50;;;;;;5130558;27;20821;-69
2024/01/28 04:06:44;;;;;;;13.27;5.22;;;3.00;77.50;;;;;;5131038;27;20179;-71
2024/01/28 04:09:12;;;;;;;14.65;4.70;;;3.10;77.50;;;;;;5136081;27;20127;-72
2024/01/28 04:11:39;;;;;;;13.73;5.38;;;3.10;77.30;;;;;;5113466;27;20143;-70
2024/01/28 04:14:06;;;;;;;11.88;4.97;;;3.00;77.30;;;;;;5131005;27;20047;-71
2024/01/28 04:16:33;;;;;;;11.33;5.00;;;3.00;77.30;;;;;;5130835;27;20549;-71
2024/01/28 04:18:59;;;;;;;12.93;4.80;;;3.00;77.30;;;;;;5131082;27;20058;-72
2024/01/28 04:21:28;;;;;;;11.90;5.30;;;3.00;77.30;;;;;;5130802;27;20128;-69
2024/01/28 04:23:57;;;;;;;12.23;4.55;;;3.00;77.30;;;;;;5130955;27;20748;-69
2024/01/28 04:26:24;;;;;;;15.05;5.43;;;3.00;77.30;;;;;;5137319;27;20049;-71
2024/01/28 04:28:51;;;;;;;14.60;5.77;;;3.00;77.20;;;;;;5150449;27;20082;-70
2024/01/28 04:31:19;;;;;;;11.32;5.22;;;2.90;77.30;;;;;;5160658;27;20155;-72
2024/01/28 04:33:46;;;;;;;13.68;5.13;;;2.90;77.40;;;;;;5112960;27;20047;-72
2024/01/28 04:36:13;;;;;;;10.80;4.70;;;2.90;77.30;;;;;;5149043;27;20047;-69
2024/01/28 04:38:40;;;;;;;13.10;5.03;;;2.90;77.40;;;;;;5113204;27;20044;-70
2024/01/28 04:41:09;;;;;;;12.77;4.80;;;2.90;77.40;;;;;;5136700;27;20130;-70
2024/01/28 04:43:39;;;;;;;12.30;5.13;;;2.90;77.30;;;;;;5149580;27;20374;-70
2024/01/28 04:46:06;;;;;;;12.40;4.72;;;2.90;77.40;;;;;;5146678;27;20055;-69
2024/01/28 04:48:33;;;;;;;13.48;4.95;;;2.90;77.30;;;;;;5115068;27;20051;-71
2024/01/28 04:51:00;;;;;;;12.15;4.78;;;2.90;77.40;;;;;;5114375;27;20085;-69
2024/01/28 04:53:27;;;;;;;10.67;4.73;;;2.90;77.40;;;;;;5132374;27;20043;-70
2024/01/28 04:55:54;;;;;;;11.15;4.45;;;2.90;77.40;;;;;;5130969;27;20664;-71
2024/01/28 04:58:23;;;;;;;11.57;4.72;;;2.90;77.40;;;;;;5114900;27;20103;-70
2024/01/28 05:00:50;;;;;;;12.57;4.53;;;2.90;77.30;;;;;;5118555;27;20058;-69
2024/01/28 05:03:17;;;;;;;14.48;4.75;;;2.90;77.20;;;;;;5116564;27;20124;-68
2024/01/28 05:05:44;;;;;;;11.53;4.63;;;2.90;77.20;;;;;;5115241;27;20144;-69
2024/01/28 05:08:12;;;;;;;12.75;4.97;;;2.90;77.20;;;;;;5115018;27;20051;-69
2024/01/28 05:10:39;;;;;;;11.40;4.30;;;2.80;77.10;;;;;;5113543;27;20109;-69
2024/01/28 05:13:06;;;;;;;14.63;4.53;;;2.80;77.20;;;;;;5132606;27;20059;-70
2024/01/28 05:15:35;;;;;;;13.75;4.35;;;2.80;77.10;;;;;;5115346;27;20051;-71
2024/01/28 05:18:02;;;;;;;11.53;4.23;;;2.80;76.90;;;;;;5141190;27;20537;-70
2024/01/28 05:20:29;;;;;;;10.57;4.28;;;2.80;77.00;;;;;;5135078;27;20100;-72
2024/01/28 05:22:59;;;;;;;11.98;4.82;;;2.70;77.00;;;;;;5124603;27;20055;-69
2024/01/28 05:25:28;;;;;;;13.43;4.13;;;2.70;76.90;;;;;;5131646;27;20510;-69
2024/01/28 05:27:55;;;;;;;11.73;4.68;;;2.70;77.00;;;;;;5114434;27;20054;-70
2024/01/28 05:30:22;;;;;;;9.73;3.97;;;2.70;77.00;;;;;;5130590;27;20557;-71
2024/01/28 05:32:50;;;;;;;14.13;4.60;;;2.70;77.00;;;;;;5123811;27;20074;-70
2024/01/28 05:35:17;;;;;;;11.30;3.90;;;2.60;77.00;;;;;;5148398;27;20115;-69
2024/01/28 05:37:45;;;;;;;12.10;4.32;;;2.60;77.10;;;;;;5143780;27;20062;-72
2024/01/28 05:40:13;;;;;;;10.40;4.28;;;2.60;77.00;;;;;;5131225;27;20051;-72
2024/01/28 05:42:40;;;;;;;11.00;4.47;;;2.60;77.10;;;;;;5114542;27;20211;-69
2024/01/28 05:45:07;;;;;;;10.60;4.10;;;2.60;77.20;;;;;;5131740;27;20055;-70
2024/01/28 05:47:35;;;;;;;10.45;4.18;;;2.60;77.20;;;;;;5135012;27;20491;-70
2024/01/28 05:50:03;;;;;;;8.32;4.15;;;2.60;77.10;;;;;;5151319;27;20050;-69
2024/01/28 05:52:30;;;;;;;12.50;4.22;;;2.70;77.10;;;;;;5120400;27;20150;-72
2024/01/28 05:54:57;;;;;;;11.63;4.70;;;2.60;76.90;;;;;;5130974;27;20076;-70
2024/01/28 05:57:24;;;;;;;11.27;4.10;;;2.60;77.00;;;;;;5114069;27;20158;-70
2024/01/28 05:59:51;;;;;;;11.38;4.05;;;2.60;76.90;;;;;;5124845;27;20245;-70
2024/01/28 06:02:18;;;;;;;14.13;4.50;;;2.60;76.90;;;;;;5146436;27;20047;-69
2024/01/28 06:04:45;;;;;;;13.40;4.22;;;2.50;77.00;;;;;;5114125;27;20047;-69
2024/01/28 06:07:14;;;;;;;10.30;4.03;;;2.60;76.90;;;;;;5114610;27;20066;-68
2024/01/28 06:09:41;;;;;;;10.23;4.13;;;2.50;76.90;;;;;;5142203;27;20050;-72
2024/01/28 06:12:08;;;;;;;13.55;4.30;;;2.50;76.90;;;;;;5151541;27;20412;-72
2024/01/28 06:14:35;;;;;;;10.55;4.30;;;2.50;76.90;;;;;;5123190;27;20075;-72
2024/01/28 06:17:02;;;;;;;10.15;3.90;;;2.50;76.90;;;;;;5113891;27;20055;-70
2024/01/28 06:19:29;;;;;;;12.17;4.03;;;2.50;76.80;;;;;;5123200;27;20047;-71
2024/01/28 06:22:00;;;;;;;9.93;3.90;;;2.50;76.80;;;;;;5150920;27;20605;-69
2024/01/28 06:24:29;;;;;;;10.73;4.10;;;2.50;76.90;;;;;;5134162;27;20127;-73
2024/01/28 06:26:56;;;;;;;10.73;3.60;;;2.50;76.80;;;;;;5148500;27;20077;-70
2024/01/28 06:29:23;;;;;;;9.63;4.22;;;2.50;76.70;;;;;;5125195;27;20292;-70
2024/01/28 06:31:50;;;;;;;12.53;4.00;;;2.50;76.80;;;;;;5112631;27;20075;-69
2024/01/28 06:34:18;;;;;;;10.82;4.38;;;2.50;76.90;;;;;;5130255;27;20051;-70
2024/01/28 06:36:45;;;;;;;11.52;3.60;;;2.50;76.90;;;;;;5113417;27;20047;-69
2024/01/28 06:39:12;;;;;;;12.02;3.90;;;2.50;76.90;;;;;;5113920;27;20055;-71
2024/01/28 06:41:41;;;;;;;13.07;3.88;;;2.50;76.80;;;;;;5112874;27;20653;-69
2024/01/28 06:44:09;;;;;;;13.47;3.80;;;2.50;76.90;;;;;;5134679;27;20047;-69
2024/01/28 06:46:36;;;;;;;10.95;3.80;;;2.60;76.70;;;;;;5134055;27;20554;-70
2024/01/28 06:49:03;;;;;;;12.65;3.83;;;2.60;76.80;;;;;;5151190;27;20617;-71
2024/01/28 06:51:30;;;;;;;10.55;4.13;;;2.60;76.60;;;;;;5124232;27;20043;-69
2024/01/28 06:53:58;;;;;;;9.82;4.50;;;2.60;76.50;;;;;;5112821;27;20566;-69
2024/01/28 06:56:25;;;;;;;10.07;4.10;;;2.60;76.50;;;;;;5113313;27;20078;-69
2024/01/28 06:58:52;;;;;;;9.80;4.00;;;2.60;76.40;;;;;;5112753;27;20059;-69
2024/01/28 07:01:19;;;;;;;9.93;4.00;;;2.50;76.10;;;;;;5137702;27;20663;-70
2024/01/28 07:03:46;;;;;;;11.82;4.15;;;2.50;76.00;;;;;;5113087;27;20051;-71
2024/01/28 07:06:15;;;;;;;11.13;4.32;;;2.50;75.90;;;;;;5129177;27;20054;-69
2024/01/28 07:08:42;;;;;;;11.20;3.83;;;2.50;75.90;;;;;;5112887;27;20657;-69
2024/01/28 07:11:09;;;;;;;12.82;4.47;;;2.50;76.00;;;;;;5112138;27;20051;-70
2024/01/28 07:13:36;;;;;;;8.50;4.05;;;2.40;76.20;;;;;;5130179;27;20051;-71
2024/01/28 07:16:07;;;;;;;9.13;4.15;;;2.40;76.50;;;;;;5112119;27;20047;-69
2024/01/28 07:18:34;;;;;;;10.10;3.83;;;2.50;76.60;;;;;;5144150;27;20043;-69
2024/01/28 07:21:02;;;;;;;12.23;4.20;;;2.50;76.50;;;;;;5133469;27;20195;-70
2024/01/28 07:23:29;;;;;;;9.00;4.53;;;2.50;76.10;;;;;;5150853;27;20340;-68
2024/01/28 07:25:55;;;;;;;11.43;4.43;;;2.40;76.00;;;;;;5126998;27;20073;-70
2024/01/28 07:28:23;;;;;;;9.60;4.18;;;2.40;76.10;;;;;;5112513;27;20406;-71
2024/01/28 07:30:50;;;;;;;10.10;4.45;;;2.40;76.20;;;;;;5123517;27;20051;-71
2024/01/28 07:33:18;;;;;;;10.37;4.07;;;2.40;76.40;;;;;;5129751;27;20545;-69
2024/01/28 07:35:45;;;;;;;10.73;4.15;;;2.40;76.30;;;;;;5133525;27;20059;-72
2024/01/28 07:38:12;;;;;;;10.25;4.10;;;2.40;76.50;;;;;;5111596;27;20562;-69
2024/01/28 07:40:39;;;;;;;9.70;4.10;;;2.50;76.30;;;;;;5128689;27;20047;-70
2024/01/28 07:43:07;;;;;;;11.27;4.30;;;2.50;76.20;;;;;;5112263;27;20410;-70
2024/01/28 07:45:37;;;;;;;11.07;4.60;;;2.50;76.20;;;;;;5135346;27;20129;-71
2024/01/28 07:48:04;;;;;;;13.45;4.80;;;2.50;76.30;;;;;;5121022;27;20567;-71
2024/01/28 07:50:32;;;;;;;11.45;5.07;;;2.50;76.00;;;;;;5143817;27;20055;-68
2024/01/28 07:53:00;;;;;;;10.85;4.38;;;2.50;75.70;;;;;;5127536;27;20055;-72
2024/01/28 07:55:27;;;;;;;11.20;4.90;;;2.40;75.70;;;;;;5129582;27;20050;-69
2024/01/28 07:57:54;;;;;;;9.97;4.73;;;2.40;75.70;;;;;;5133183;27;20613;-71
2024/01/28 08:00:22;;;;;;;9.20;5.00;;;2.40;75.90;;;;;;5150429;27;20051;-69
2024/01/28 08:02:49;;;;;;;11.35;4.70;;;2.40;75.80;;;;;;5148726;27;20201;-69
2024/01/28 08:05:16;;;;;;;10.80;5.03;;;2.40;75.80;;;;;;5132888;27;20138;-72
2024/01/28 08:07:44;;;;;;;11.23;4.70;;;2.30;75.80;;;;;;5117482;27;20667;-70
2024/01/28 08:10:11;;;;;;;11.67;5.13;;;2.30;76.00;;;;;;5109818;27;20591;-70
2024/01/28 08:12:38;;;;;;;13.85;4.95;;;2.30;75.90;;;;;;5125794;27;20513;-71
2024/01/28 08:15:06;;;;;;;11.50;5.20;;;2.30;76.00;;;;;;5132960;27;20054;-69
2024/01/28 08:17:33;;;;;;;12.75;4.68;;;2.30;75.90;;;;;;5134921;27;20046;-69
2024/01/28 08:20:01;;;;;;;13.00;5.43;;;2.30;76.00;;;;;;5134370;27;20051;-70
2024/01/28 08:22:28;;;;;;;9.20;4.37;;;2.30;75.90;;;;;;5131808;27;20513;-70
2024/01/28 08:24:56;;;;;;;12.25;4.53;;;2.20;76.10;;;;;;5116143;27;20051;-71
2024/01/28 08:27:23;;;;;;;11.40;5.00;;;2.20;76.00;;;;;;5113300;27;20052;-72
2024/01/28 08:29:50;;;;;;;9.55;4.72;;;2.20;76.20;;;;;;5115012;27;20047;-71
2024/01/28 08:32:17;;;;;;;11.57;4.80;;;2.20;76.20;;;;;;5131957;27;20833;-69
2024/01/28 08:34:45;;;;;;;11.80;5.00;;;2.20;76.20;;;;;;5115701;27;20448;-70
2024/01/28 08:37:14;;;;;;;12.07;5.20;;;2.20;76.10;;;;;;5142641;27;20101;-70
2024/01/28 08:39:41;;;;;;;9.18;4.85;;;2.20;76.10;;;;;;5132477;27;20161;-72
2024/01/28 08:42:09;;;;;;;11.90;5.05;;;2.20;76.10;;;;;;5115052;27;20057;-71
2024/01/28 08:44:37;;;;;;;12.68;5.30;;;2.20;76.20;;;;;;5145605;27;20111;-70
2024/01/28 08:47:04;;;;;;;11.70;4.97;;;2.20;76.30;;;;;;5115345;27;20116;-69
2024/01/28 08:49:31;;;;;;;11.00;4.95;;;2.20;76.30;;;;;;5114668;27;20047;-69
2024/01/28 08:51:58;;;;;;;12.20;5.32;;;2.10;76.40;;;;;;5131225;27;20155;-69
2024/01/28 08:54:25;;;;;;;11.00;4.55;;;2.10;76.60;;;;;;5132148;27;20062;-71
2024/01/28 08:56:53;;;;;;;12.95;4.30;;;2.10;76.60;;;;;;5115508;27;20059;-70
2024/01/28 08:59:21;;;;;;;13.10;4.90;;;2.20;76.70;;;;;;5114368;27;20579;-72
2024/01/28 09:01:49;;;;;;;10.73;5.10;;;2.20;76.60;;;;;;5112593;27;20062;-71
2024/01/28 09:04:16;;;;;;;13.20;4.40;;;2.20;76.80;;;;;;5136782;27;20086;-70
2024/01/28 09:06:44;;;;;;;9.30;4.40;;;2.20;76.80;;;;;;5115068;27;20736;-70
2024/01/28 09:09:11;;;;;;;8.82;4.03;;;2.20;76.80;;;;;;5113398;27;20134;-69
2024/01/28 09:11:38;;;;;;;10.40;3.97;;;2.30;76.80;;;;;;5113269;27;20150;-72
2024/01/28 09:14:05;;;;;;;9.75;3.88;;;2.30;76.80;;;;;;5131231;27;20059;-69
2024/01/28 09:16:33;;;;;;;9.10;4.45;;;2.30;76.80;;;;;;5130245;27;20058;-72
2024/01/28 09:19:03;;;;;;;9.65;3.78;;;2.40;76.80;;;;;;5134193;27;20120;-69
2024/01/28 09:21:31;;;;;;;8.18;3.90;;;2.40;76.80;;;;;;5112449;27;20062;-69
2024/01/28 09:23:58;;;;;;;12.53;3.90;;;2.50;76.80;;;;;;5112167;27;20469;-71
2024/01/28 09:26:26;;;;;;;8.73;3.33;;;2.50;76.70;;;;;;5129899;27;20039;-68
2024/01/28 09:28:53;;;;;;;10.40;3.90;;;2.50;76.60;;;;;;5127939;27;20071;-70
2024/01/28 09:31:21;;;;;;;9.48;3.40;;;2.60;76.50;;;;;;5113315;27;20124;-70
2024/01/28 09:33:49;;;;;;;9.50;3.58;;;2.70;76.20;;;;;;5150644;27;20070;-71
2024/01/28 09:36:16;;;;;;;8.73;3.30;;;2.80;76.30;;;;;;5129967;27;20138;-70
2024/01/28 09:38:43;;;;;;;9.02;3.65;;;2.80;76.20;;;;;;5131484;27;20126;-71
2024/01/28 09:41:17;;;;;;;8.77;3.67;;;2.90;76.10;;;;;;5152225;27;20066;-70
2024/01/28 09:43:44;;;;;;;9.32;3.20;;;2.90;75.90;;;;;;5151524;27;20046;-74
2024/01/28 09:46:13;;;;;;;8.95;3.75;;;3.00;75.70;;;;;;5115550;27;20066;-69
2024/01/28 09:48:44;;;;;;;7.87;3.70;;;3.00;75.50;;;;;;5131770;27;20075;-71
2024/01/28 09:51:13;;;;;;;9.98;3.33;;;3.10;75.60;;;;;;5149610;27;20047;-71
2024/01/28 09:53:42;;;;;;;9.13;3.75;;;3.10;75.10;;;;;;5155375;27;20493;-71
2024/01/28 09:56:13;;;;;;;8.45;3.20;;;3.20;75.10;;;;;;5134335;27;20055;-71
2024/01/28 09:58:41;;;;;;;8.50;3.50;;;3.20;75.00;;;;;;5115531;27;20048;-71
2024/01/28 10:01:10;;;;;;;9.20;3.40;;;3.30;75.00;;;;;;5137031;27;20723;-71
2024/01/28 10:03:38;;;;;;;9.20;3.45;;;3.30;75.10;;;;;;5132802;27;20134;-71
2024/01/28 10:06:05;;;;;;;8.55;3.55;;;3.40;74.80;;;;;;5132681;27;20166;-71
2024/01/28 10:08:33;;;;;;;10.48;3.50;;;3.50;74.90;;;;;;5132499;27;20580;-71
2024/01/28 10:11:01;;;;;;;7.85;3.38;;;3.60;74.30;;;;;;5134740;27;20536;-70
2024/01/28 10:13:29;;;;;;;8.60;3.57;;;3.60;73.60;;;;;;5131580;27;20049;-71
2024/01/28 10:15:56;;;;;;;9.73;3.35;;;3.70;73.10;;;;;;5131335;27;20047;-71
2024/01/28 10:18:24;;;;;;;8.48;3.17;;;3.80;73.00;;;;;;5112832;27;20146;-71
2024/01/28 10:20:51;;;;;;;6.85;2.92;;;3.90;72.80;;;;;;5128608;27;20054;-71
2024/01/28 10:23:18;;;;;;;7.97;3.10;;;3.90;73.10;;;;;;5152532;27;20127;-70
2024/01/28 10:25:47;;;;;;;9.10;3.37;;;4.00;73.30;;;;;;5145530;27;20047;-71
2024/01/28 10:28:16;;;;;;;10.10;3.70;;;4.10;73.20;;;;;;5113396;27;20147;-71
2024/01/28 10:30:44;;;;;;;8.25;3.35;;;4.20;73.20;;;;;;5135696;27;20054;-71
2024/01/28 10:33:11;;;;;;;11.60;3.50;;;4.20;73.00;;;;;;5151488;27;20086;-71
2024/01/28 10:35:38;;;;;;;7.32;2.72;;;4.30;72.90;;;;;;5123897;27;20258;-71
2024/01/28 10:38:05;;;;;;;9.23;3.10;;;4.40;72.90;;;;;;5128823;27;20156;-71
2024/01/28 10:40:34;;;;;;;8.35;2.95;;;4.50;72.50;;;;;;5113564;27;20544;-71
2024/01/28 10:43:03;;;;;;;7.30;3.20;;;4.50;72.70;;;;;;5146100;27;20054;-71
2024/01/28 10:45:33;;;;;;;7.32;2.63;;;4.70;72.80;;;;;;5129539;27;20051;-71
2024/01/28 10:48:07;;;;;;;7.40;3.00;;;4.70;72.40;;;;;;5127639;27;20143;-71
2024/01/28 10:50:34;;;;;;;8.27;3.10;;;4.90;72.20;;;;;;5112711;27;21003;-71
2024/01/28 10:53:04;;;;;;;10.38;2.88;;;4.90;72.10;;;;;;5147731;27;20059;-71
2024/01/28 10:55:32;;;;;;;6.00;2.25;;;5.00;71.40;;;;;;5146695;27;20063;-71
2024/01/28 10:58:00;;;;;;;8.27;2.85;;;5.10;70.50;;;;;;5127569;27;20047;-71
2024/01/28 11:00:29;;;;;;;8.60;2.60;;;5.20;70.60;;;;;;5124918;27;20295;-71
2024/01/28 11:02:59;;;;;;;7.33;2.40;;;5.30;70.30;;;;;;5146533;27;20554;-71
2024/01/28 11:05:26;;;;;;;6.75;2.92;;;5.40;70.60;;;;;;5110180;27;20043;-71
2024/01/28 11:07:59;;;;;;;6.53;2.50;;;5.50;70.70;;;;;;5127788;27;20572;-71
2024/01/28 11:10:27;;;;;;;7.15;2.40;;;5.50;70.50;;;;;;5126846;27;20051;-71
2024/01/28 11:12:56;;;;;;;8.60;2.60;;;5.60;70.30;;;;;;5128088;27;20061;-71
2024/01/28 11:15:23;;;;;;;7.17;2.30;;;5.70;70.50;;;;;;5128357;27;20159;-71
2024/01/28 11:17:55;;;;;;;6.68;2.50;;;5.80;69.90;;;;;;5116588;27;20134;-71
2024/01/28 11:20:27;;;;;;;7.40;2.80;;;6.00;70.20;;;;;;5129724;27;20181;-71
2024/01/28 11:22:56;;;;;;;6.63;2.45;;;6.10;70.10;;;;;;5141919;27;20475;-71
2024/01/28 11:25:25;;;;;;;5.82;2.72;;;6.20;70.30;;;;;;5137020;27;20275;-71
2024/01/28 11:27:53;;;;;;;6.03;2.30;;;6.20;69.40;;;;;;5129357;27;20044;-71
2024/01/28 11:30:21;;;;;;;8.40;2.63;;;6.30;68.20;;;;;;5129953;27;20564;-71
2024/01/28 11:32:49;;;;;;;6.63;2.00;;;6.40;69.00;;;;;;5129048;27;20054;-71
2024/01/28 11:35:17;;;;;;;6.63;2.13;;;6.60;68.80;;;;;;5126783;27;20128;-71
2024/01/28 11:37:52;;;;;;;6.22;1.90;;;6.70;68.20;;;;;;5147720;27;20621;-71
2024/01/28 11:40:23;;;;;;;6.20;2.30;;;6.70;67.20;;;;;;5129277;27;20468;-71
2024/01/28 11:42:53;;;;;;;5.20;2.15;;;6.80;67.40;;;;;;5129405;27;20043;-71
2024/01/28 11:45:21;;;;;;;4.90;2.10;;;6.90;66.10;;;;;;5129903;27;20047;-71
2024/01/28 11:47:48;;;;;;;4.75;1.35;;;7.00;66.20;;;;;;5113476;27;20074;-71
2024/01/28 11:50:17;;;;;;;6.88;1.98;;;7.00;65.20;;;;;;5130137;27;20071;-71
2024/01/28 11:52:44;;;;;;;6.73;1.90;;;7.20;65.10;;;;;;5131179;27;20225;-71
2024/01/28 11:55:13;;;;;;;6.45;1.80;;;7.20;64.80;;;;;;5134600;27;20517;-71
2024/01/28 11:57:41;;;;;;;6.50;1.90;;;7.30;64.10;;;;;;5142679;27;20558;-71
2024/01/28 12:00:10;;;;;;;7.38;1.90;;;7.40;63.80;;;;;;5146662;27;20059;-71
2024/01/28 12:02:38;;;;;;;5.20;1.73;;;7.50;62.70;;;;;;5125350;27;20047;-71
2024/01/28 12:05:06;;;;;;;3.90;1.47;;;7.50;62.70;;;;;;5154619;27;20054;-71
2024/01/28 12:07:37;;;;;;;5.95;1.80;;;7.60;62.40;;;;;;5155894;27;20190;-71
2024/01/28 12:10:09;;;;;;;7.15;1.58;;;7.60;62.70;;;;;;5152783;27;20142;-71
2024/01/28 12:12:37;;;;;;;4.07;2.00;;;7.80;61.80;;;;;;5156397;27;20153;-71
2024/01/28 12:15:05;;;;;;;5.13;1.50;;;7.80;62.20;;;;;;5136731;27;20083;-71
2024/01/28 12:17:35;;;;;;;5.63;1.50;;;7.90;62.00;;;;;;5135514;27;20075;-71
2024/01/28 12:20:03;;;;;;;5.35;1.65;;;8.00;62.40;;;;;;5134660;27;20661;-71
2024/01/28 12:22:37;;;;;;;6.07;1.70;;;8.00;61.50;;;;;;5135174;27;20055;-71
2024/01/28 12:25:09;;;;;;;5.60;1.77;;;8.10;60.80;;;;;;5135271;27;20055;-71
2024/01/28 12:27:36;;;;;;;5.18;1.65;;;8.10;61.60;;;;;;5134341;27;20051;-71
2024/01/28 12:30:03;;;;;;;6.77;1.60;;;8.20;61.80;;;;;;5133903;27;20956;-72
2024/01/28 12:32:30;;;;;;;6.60;1.60;;;8.30;62.50;;;;;;5134220;27;20143;-71
2024/01/28 12:35:03;;;;;;;5.15;1.55;;;8.40;62.60;;;;;;5133988;27;20434;-71
2024/01/28 12:37:30;;;;;;;4.85;1.77;;;8.50;61.10;;;;;;5133564;27;20070;-71
2024/01/28 12:39:59;;;;;;;6.20;1.85;;;8.50;61.20;;;;;;5134188;27;20062;-71
2024/01/28 12:42:26;;;;;;;4.63;1.50;;;8.60;60.20;;;;;;5132424;27;20063;-71
2024/01/28 12:44:53;;;;;;;6.93;1.80;;;8.60;60.40;;;;;;5138592;27;20051;-71
2024/01/28 12:47:20;;;;;;;6.63;1.60;;;8.70;61.00;;;;;;5132929;27;20482;-71
2024/01/28 12:49:46;;;;;;;5.43;1.70;;;8.80;60.70;;;;;;5133137;27;20050;-71
2024/01/28 12:52:14;;;;;;;5.95;2.03;;;8.90;60.50;;;;;;5115223;27;20877;-72